Time;durP1;ratioP1;P1;durP2;ratioP2;P2;SDS_P1;SDS_P2;PMS_P1;PMS_P2;Temp;Humidity;BMP_temperature;BMP_pressure;BME280_temperature;BME280_humidity;BME280_pressure;Samples;Min_cycle;Max_cycle;Signal;HPM_P1;HPM_P2
2022/08/01 00:01:55;;;;;;;4.57;4.18;;;26.40;45.20;;;;;;5009555;28;20222;-86
2022/08/01 00:04:21;;;;;;;4.53;4.22;;;26.30;45.00;;;;;;5005011;28;20232;-86
2022/08/01 00:06:47;;;;;;;4.68;4.35;;;26.20;46.00;;;;;;5013697;28;20186;-85
2022/08/01 00:09:13;;;;;;;4.38;4.00;;;26.10;45.50;;;;;;5009818;28;20218;-85
2022/08/01 00:11:38;;;;;;;4.45;4.10;;;25.90;47.20;;;;;;4998884;28;20301;-85
2022/08/01 00:14:04;;;;;;;4.72;4.43;;;25.90;46.70;;;;;;5001123;28;20190;-86
2022/08/01 00:16:30;;;;;;;4.65;4.35;;;25.90;45.90;;;;;;5001032;28;20320;-85
2022/08/01 00:18:56;;;;;;;4.65;4.30;;;25.90;46.80;;;;;;5014005;28;20240;-85
2022/08/01 00:21:22;;;;;;;4.55;4.25;;;25.80;47.40;;;;;;4990770;28;20186;-86
2022/08/01 00:23:48;;;;;;;4.47;4.18;;;25.70;47.90;;;;;;5012530;28;20237;-87
2022/08/01 00:26:14;;;;;;;4.45;4.15;;;25.60;47.80;;;;;;5013570;28;20193;-86
2022/08/01 00:28:40;;;;;;;4.57;4.20;;;25.70;47.60;;;;;;5015867;28;20592;-86
2022/08/01 00:31:07;;;;;;;4.70;4.30;;;25.70;47.80;;;;;;5006720;28;20213;-87
2022/08/01 00:33:32;;;;;;;4.60;4.20;;;25.50;48.60;;;;;;5008115;28;20325;-85
2022/08/01 00:35:58;;;;;;;4.40;4.03;;;25.50;48.90;;;;;;5008972;28;20665;-86
2022/08/01 00:38:24;;;;;;;4.85;4.30;;;25.50;48.90;;;;;;5012063;28;20632;-86
2022/08/01 00:40:50;;;;;;;4.60;4.30;;;25.50;48.90;;;;;;5016784;28;20773;-86
2022/08/01 00:43:16;;;;;;;4.20;3.90;;;25.50;48.90;;;;;;5011926;28;20206;-86
2022/08/01 00:45:41;;;;;;;4.55;4.22;;;25.50;48.10;;;;;;5007313;28;20249;-86
2022/08/01 00:48:07;;;;;;;5.00;4.50;;;25.50;48.30;;;;;;5011384;28;20205;-86
2022/08/01 00:50:34;;;;;;;4.47;4.13;;;25.50;48.50;;;;;;5015953;28;20216;-86
2022/08/01 00:53:00;;;;;;;4.70;4.30;;;25.30;50.00;;;;;;5010424;28;20205;-85
2022/08/01 00:55:27;;;;;;;4.78;4.32;;;25.10;49.80;;;;;;5008224;28;20205;-84
2022/08/01 00:57:54;;;;;;;4.32;4.03;;;25.30;49.30;;;;;;5028225;28;20217;-85
2022/08/01 01:00:20;;;;;;;5.20;4.90;;;25.20;50.90;;;;;;5011291;28;20201;-85
2022/08/01 01:02:47;;;;;;;4.78;4.47;;;25.10;50.10;;;;;;4981297;28;20192;-85
2022/08/01 01:05:13;;;;;;;4.72;4.28;;;25.10;49.90;;;;;;5002283;28;20244;-85
2022/08/01 01:07:53;;;;;;;4.85;4.40;;;25.00;50.90;;;;;;5006466;28;20306;-85
2022/08/01 01:10:28;;;;;;;4.95;4.40;;;25.10;50.50;;;;;;5009620;28;20208;-86
2022/08/01 01:13:06;;;;;;;4.63;4.30;;;24.80;51.80;;;;;;5006346;28;20252;-86
2022/08/01 01:15:57;;;;;;;4.72;4.43;;;24.60;51.60;;;;;;5000165;28;20190;-85
2022/08/01 01:18:29;;;;;;;4.35;4.05;;;24.70;51.80;;;;;;5002753;28;20221;-85
2022/08/01 01:21:18;;;;;;;4.80;4.38;;;24.60;53.40;;;;;;5009724;28;20620;-85
2022/08/01 01:24:14;;;;;;;4.45;4.15;;;24.60;51.90;;;;;;5015650;28;20313;-85
2022/08/01 01:26:45;;;;;;;4.78;4.38;;;24.60;51.60;;;;;;5005616;28;20220;-86
2022/08/01 01:29:26;;;;;;;4.22;4.03;;;24.80;51.10;;;;;;5003253;28;20267;-85
2022/08/01 01:32:16;;;;;;;4.30;4.00;;;24.90;50.30;;;;;;5010744;28;20218;-85
2022/08/01 01:34:45;;;;;;;4.55;4.07;;;24.80;50.40;;;;;;5012227;28;20657;-84
2022/08/01 01:37:20;;;;;;;7.43;4.97;;;24.80;50.70;;;;;;5017097;28;20184;-86
2022/08/01 01:39:50;;;;;;;4.75;4.43;;;24.80;50.50;;;;;;5012712;28;20185;-86
2022/08/01 01:42:17;;;;;;;4.32;4.03;;;24.70;51.70;;;;;;5019142;28;20302;-85
2022/08/01 01:44:45;;;;;;;4.78;4.47;;;24.80;51.10;;;;;;5017950;28;20189;-85
2022/08/01 01:47:13;;;;;;;4.43;4.13;;;24.80;50.50;;;;;;5012463;28;20194;-85
2022/08/01 01:49:41;;;;;;;5.07;4.32;;;24.90;50.70;;;;;;4992903;28;20530;-85
2022/08/01 01:52:08;;;;;;;4.43;4.13;;;24.80;51.60;;;;;;5012735;28;20202;-85
2022/08/01 01:54:42;;;;;;;4.25;3.95;;;24.70;51.60;;;;;;5030521;28;20180;-85
2022/08/01 01:57:09;;;;;;;4.70;4.30;;;24.80;51.00;;;;;;5020387;28;20181;-85
2022/08/01 01:59:38;;;;;;;4.57;4.20;;;24.80;51.30;;;;;;5017214;28;20192;-85
2022/08/01 02:02:06;;;;;;;4.70;4.30;;;24.90;50.60;;;;;;5011054;28;20204;-85
2022/08/01 02:04:35;;;;;;;4.70;4.40;;;24.90;50.40;;;;;;4994447;28;20174;-85
2022/08/01 02:07:02;;;;;;;4.63;4.22;;;24.80;51.70;;;;;;5013373;28;20186;-85
2022/08/01 02:09:30;;;;;;;5.05;4.65;;;24.60;52.40;;;;;;5010576;28;20186;-85
2022/08/01 02:11:59;;;;;;;4.18;3.95;;;24.60;52.40;;;;;;5013058;28;20229;-86
2022/08/01 02:14:26;;;;;;;5.03;4.60;;;24.60;52.50;;;;;;5013789;28;20209;-85
2022/08/01 02:16:54;;;;;;;4.70;4.22;;;24.60;51.90;;;;;;4998213;28;20182;-86
2022/08/01 02:19:20;;;;;;;4.63;4.32;;;24.70;51.90;;;;;;4998119;28;20202;-86
2022/08/01 02:21:55;;;;;;;4.43;4.10;;;24.60;52.60;;;;;;5018688;28;20197;-86
2022/08/01 02:24:23;;;;;;;4.63;4.22;;;24.50;52.90;;;;;;5010032;28;20173;-86
2022/08/01 02:26:54;;;;;;;4.88;4.53;;;24.50;53.30;;;;;;5015925;28;20264;-85
2022/08/01 02:29:27;;;;;;;4.50;4.20;;;24.40;53.30;;;;;;5018858;28;20213;-84
2022/08/01 02:31:54;;;;;;;4.78;4.47;;;24.30;53.80;;;;;;5022387;28;20212;-84
2022/08/01 02:34:22;;;;;;;4.82;4.47;;;24.20;54.50;;;;;;5005863;28;20201;-85
2022/08/01 02:36:49;;;;;;;4.68;4.28;;;24.20;53.90;;;;;;5010266;28;20186;-86
2022/08/01 02:39:19;;;;;;;4.80;4.45;;;24.30;53.90;;;;;;5015337;28;20206;-84
2022/08/01 02:41:48;;;;;;;5.80;4.70;;;24.30;53.70;;;;;;5010361;28;20247;-86
2022/08/01 02:44:24;;;;;;;4.78;4.47;;;24.20;53.60;;;;;;5011375;28;20202;-85
2022/08/01 02:46:56;;;;;;;11.23;5.00;;;24.20;54.10;;;;;;5013435;28;20197;-85
2022/08/01 02:49:23;;;;;;;4.95;4.55;;;23.90;54.90;;;;;;5010271;28;20186;-84
2022/08/01 02:51:51;;;;;;;5.72;4.53;;;23.90;54.80;;;;;;5021674;28;20214;-85
2022/08/01 02:54:21;;;;;;;5.13;4.72;;;23.90;54.60;;;;;;5024916;28;20189;-85
2022/08/01 02:56:48;;;;;;;6.40;4.57;;;24.00;54.40;;;;;;4996241;28;20281;-85
2022/08/01 02:59:17;;;;;;;6.95;4.50;;;24.00;54.50;;;;;;5012805;28;20209;-86
2022/08/01 03:01:45;;;;;;;4.90;4.60;;;24.00;54.00;;;;;;5002724;28;20197;-85
2022/08/01 03:04:12;;;;;;;5.18;4.65;;;24.00;54.20;;;;;;5012353;28;20186;-85
2022/08/01 03:06:39;;;;;;;4.80;4.40;;;23.90;54.60;;;;;;5011039;28;20696;-85
2022/08/01 03:09:06;;;;;;;4.68;4.38;;;23.90;54.80;;;;;;5017965;28;20209;-86
2022/08/01 03:11:34;;;;;;;4.95;4.53;;;23.70;55.20;;;;;;4991387;28;20244;-85
2022/08/01 03:14:04;;;;;;;5.20;4.80;;;23.80;54.90;;;;;;4983089;28;20182;-85
2022/08/01 03:16:33;;;;;;;9.27;4.80;;;23.80;54.90;;;;;;5002556;28;20209;-85
2022/08/01 03:19:01;;;;;;;5.28;4.90;;;23.60;55.40;;;;;;5007882;28;20238;-85
2022/08/01 03:21:28;;;;;;;5.05;4.18;;;23.70;55.50;;;;;;4996613;28;20500;-85
2022/08/01 03:23:56;;;;;;;4.82;4.53;;;23.70;55.30;;;;;;5013850;28;20208;-86
2022/08/01 03:26:27;;;;;;;5.00;4.70;;;23.80;55.10;;;;;;5017414;28;20214;-85
2022/08/01 03:28:56;;;;;;;5.10;4.55;;;23.60;55.80;;;;;;4997958;28;20304;-85
2022/08/01 03:31:23;;;;;;;5.70;5.20;;;23.60;56.30;;;;;;5010262;28;20224;-85
2022/08/01 03:33:49;;;;;;;5.30;4.78;;;23.50;56.10;;;;;;5013113;28;20181;-85
2022/08/01 03:36:17;;;;;;;4.85;4.55;;;23.60;55.90;;;;;;5017318;28;20374;-85
2022/08/01 03:38:45;;;;;;;4.47;4.18;;;23.60;56.00;;;;;;5011948;28;20195;-86
2022/08/01 03:41:15;;;;;;;4.93;4.53;;;23.60;56.30;;;;;;5015022;28;20181;-85
2022/08/01 03:43:47;;;;;;;5.15;4.65;;;23.60;56.00;;;;;;5004057;28;20182;-86
2022/08/01 03:46:20;;;;;;;4.93;4.53;;;23.60;56.80;;;;;;5011497;28;20453;-86
2022/08/01 03:48:50;;;;;;;4.68;4.38;;;23.40;57.50;;;;;;5019314;28;20276;-86
2022/08/01 03:51:17;;;;;;;5.10;4.70;;;23.40;57.70;;;;;;5010492;28;20242;-86
2022/08/01 03:53:45;;;;;;;5.20;4.82;;;23.30;58.10;;;;;;5024160;28;20193;-86
2022/08/01 03:56:12;;;;;;;5.30;4.90;;;23.20;58.90;;;;;;5015996;28;20181;-85
2022/08/01 03:58:42;;;;;;;5.25;4.82;;;23.20;58.90;;;;;;5014431;28;20205;-85
2022/08/01 04:01:11;;;;;;;5.32;4.82;;;23.10;59.20;;;;;;5015647;28;20684;-85
2022/08/01 04:03:37;;;;;;;4.97;4.57;;;23.20;58.40;;;;;;4995603;28;20205;-85
2022/08/01 04:06:10;;;;;;;5.20;4.80;;;23.30;58.30;;;;;;5014495;28;20195;-84
2022/08/01 04:08:37;;;;;;;5.43;4.97;;;23.40;58.20;;;;;;5009294;28;20689;-85
2022/08/01 04:11:03;;;;;;;5.40;4.90;;;23.30;58.50;;;;;;5020484;28;20894;-85
2022/08/01 04:13:30;;;;;;;5.57;4.63;;;23.30;58.00;;;;;;5014258;28;20200;-85
2022/08/01 04:15:56;;;;;;;5.22;4.75;;;23.40;58.40;;;;;;4998467;28;20198;-85
2022/08/01 04:18:22;;;;;;;4.70;4.40;;;23.30;58.90;;;;;;4995368;28;20216;-85
2022/08/01 04:20:47;;;;;;;4.85;4.53;;;23.20;58.90;;;;;;5016180;28;20572;-85
2022/08/01 04:23:18;;;;;;;4.88;4.43;;;23.30;58.30;;;;;;5011585;28;20186;-85
2022/08/01 04:25:45;;;;;;;4.90;4.50;;;23.20;58.90;;;;;;5012935;28;20193;-84
2022/08/01 04:28:16;;;;;;;5.13;4.82;;;23.20;59.00;;;;;;5011291;28;20221;-85
2022/08/01 04:30:46;;;;;;;13.55;5.00;;;23.30;59.10;;;;;;5013026;28;20217;-84
2022/08/01 04:33:15;;;;;;;5.30;4.78;;;23.30;59.20;;;;;;4987101;28;20202;-83
2022/08/01 04:35:46;;;;;;;7.53;4.85;;;23.30;58.90;;;;;;5013531;28;20185;-84
2022/08/01 04:38:16;;;;;;;5.47;4.97;;;23.30;59.30;;;;;;5008866;28;20198;-84
2022/08/01 04:40:45;;;;;;;5.30;4.80;;;23.30;59.50;;;;;;5014299;28;20197;-85
2022/08/01 04:43:11;;;;;;;5.00;4.70;;;23.30;59.20;;;;;;4995233;28;20182;-84
2022/08/01 04:45:38;;;;;;;5.10;4.60;;;23.40;58.80;;;;;;5014500;28;20196;-84
2022/08/01 04:48:08;;;;;;;6.13;4.70;;;23.50;58.50;;;;;;5017255;28;20309;-84
2022/08/01 04:50:35;;;;;;;5.65;5.18;;;23.50;59.10;;;;;;5009885;28;20206;-84
2022/08/01 04:53:02;;;;;;;5.05;4.65;;;23.40;59.80;;;;;;5005409;28;20205;-84
2022/08/01 04:55:28;;;;;;;5.20;4.40;;;23.40;60.00;;;;;;4997076;28;20214;-84
2022/08/01 04:57:54;;;;;;;4.95;4.55;;;23.40;59.90;;;;;;5011846;28;20214;-84
2022/08/01 05:00:20;;;;;;;4.78;4.38;;;23.20;60.50;;;;;;5015505;28;20194;-83
2022/08/01 05:02:46;;;;;;;5.55;4.65;;;23.30;60.40;;;;;;5012798;28;20249;-84
2022/08/01 05:05:12;;;;;;;4.85;4.32;;;23.40;60.00;;;;;;5013652;28;20265;-84
2022/08/01 05:07:38;;;;;;;6.38;5.28;;;23.40;60.00;;;;;;5006851;28;20633;-84
2022/08/01 05:10:04;;;;;;;5.38;4.88;;;23.40;60.40;;;;;;5011654;28;20206;-85
2022/08/01 05:12:31;;;;;;;5.15;4.65;;;23.40;60.80;;;;;;5015147;28;20188;-84
2022/08/01 05:14:58;;;;;;;5.30;4.80;;;23.30;61.00;;;;;;5004481;28;20178;-84
2022/08/01 05:17:23;;;;;;;4.95;4.53;;;23.40;61.00;;;;;;5000144;28;20233;-84
2022/08/01 05:19:49;;;;;;;5.57;5.00;;;23.40;61.10;;;;;;5011111;28;20177;-84
2022/08/01 05:22:15;;;;;;;5.53;5.22;;;23.40;61.20;;;;;;5009627;28;20613;-84
2022/08/01 05:24:40;;;;;;;7.07;4.72;;;23.50;61.20;;;;;;5015044;28;20186;-83
2022/08/01 05:27:07;;;;;;;5.03;4.72;;;23.40;61.10;;;;;;5008309;28;20201;-83
2022/08/01 05:29:34;;;;;;;5.05;4.65;;;23.50;60.90;;;;;;4990322;28;20304;-83
2022/08/01 05:31:59;;;;;;;5.03;4.63;;;23.50;61.40;;;;;;5013877;28;20198;-83
2022/08/01 05:34:25;;;;;;;10.55;5.13;;;23.50;62.30;;;;;;4998873;28;20637;-83
2022/08/01 05:36:51;;;;;;;5.43;4.95;;;23.30;64.20;;;;;;5008818;28;20178;-84
2022/08/01 05:39:17;;;;;;;5.25;4.85;;;23.10;64.30;;;;;;5016739;28;20301;-84
2022/08/01 05:41:43;;;;;;;5.65;5.15;;;23.00;65.30;;;;;;5016075;28;20216;-83
2022/08/01 05:44:09;;;;;;;5.88;4.72;;;22.90;66.50;;;;;;5003905;28;20194;-83
2022/08/01 05:46:35;;;;;;;5.80;5.15;;;22.80;66.40;;;;;;5014482;28;20292;-84
2022/08/01 05:49:03;;;;;;;5.00;4.63;;;22.70;66.90;;;;;;5006747;28;20232;-84
2022/08/01 05:51:29;;;;;;;4.80;4.50;;;22.60;67.70;;;;;;5019676;28;20195;-84
2022/08/01 05:53:55;;;;;;;5.07;4.55;;;22.60;68.30;;;;;;5008986;28;20205;-84
2022/08/01 05:56:21;;;;;;;4.95;4.63;;;22.60;67.90;;;;;;5011240;28;20199;-84
2022/08/01 05:58:49;;;;;;;5.05;4.75;;;22.60;68.40;;;;;;5011825;28;20220;-84
2022/08/01 06:01:15;;;;;;;6.35;4.80;;;22.50;68.80;;;;;;5013381;28;20266;-85
2022/08/01 06:03:40;;;;;;;5.18;4.43;;;22.50;69.50;;;;;;4988317;28;20796;-85
2022/08/01 06:06:06;;;;;;;5.25;4.75;;;22.50;69.70;;;;;;5010311;28;20198;-84
2022/08/01 06:08:32;;;;;;;7.13;5.07;;;22.60;69.60;;;;;;5014880;28;20212;-84
2022/08/01 06:10:58;;;;;;;4.82;4.53;;;22.70;69.40;;;;;;5003452;28;20291;-85
2022/08/01 06:13:24;;;;;;;5.50;4.45;;;22.70;69.50;;;;;;5010280;28;20221;-84
2022/08/01 06:15:50;;;;;;;5.28;4.88;;;22.80;69.00;;;;;;5014635;28;20441;-84
2022/08/01 06:18:16;;;;;;;4.97;4.55;;;22.90;69.50;;;;;;5007283;28;20201;-83
2022/08/01 06:20:42;;;;;;;5.13;4.35;;;22.90;69.40;;;;;;5009484;28;20662;-84
2022/08/01 06:23:08;;;;;;;5.00;4.55;;;22.90;69.60;;;;;;4991791;28;20193;-83
2022/08/01 06:25:34;;;;;;;4.60;4.20;;;23.00;69.50;;;;;;5011347;28;20657;-84
2022/08/01 06:28:00;;;;;;;4.68;4.28;;;23.00;69.00;;;;;;5013543;28;20212;-84
2022/08/01 06:30:26;;;;;;;5.57;4.32;;;23.10;68.50;;;;;;5009162;28;20288;-85
2022/08/01 06:32:55;;;;;;;4.75;4.45;;;23.20;68.20;;;;;;4993217;28;20190;-84
2022/08/01 06:35:21;;;;;;;5.22;4.90;;;23.10;69.00;;;;;;5002943;28;20194;-85
2022/08/01 06:37:47;;;;;;;10.10;9.20;;;23.30;68.50;;;;;;5028415;28;20206;-85
2022/08/01 06:40:13;;;;;;;18.38;16.42;;;23.20;68.60;;;;;;4988088;28;20241;-83
2022/08/01 06:42:39;;;;;;;25.95;23.55;;;23.30;68.70;;;;;;5002606;28;20187;-83
2022/08/01 06:45:06;;;;;;;25.73;23.48;;;23.40;67.90;;;;;;5013858;28;20196;-85
2022/08/01 06:47:32;;;;;;;17.45;15.85;;;23.60;67.10;;;;;;4992074;28;20209;-85
2022/08/01 06:49:58;;;;;;;15.73;14.52;;;23.80;66.10;;;;;;5008681;28;20197;-85
2022/08/01 06:52:24;;;;;;;15.25;13.85;;;23.90;65.90;;;;;;5015054;28;20198;-85
2022/08/01 06:54:49;;;;;;;14.93;13.65;;;23.80;66.10;;;;;;5010471;28;20222;-85
2022/08/01 06:57:15;;;;;;;11.15;9.60;;;23.90;66.10;;;;;;5017158;28;20218;-85
2022/08/01 06:59:41;;;;;;;9.23;8.52;;;24.00;65.50;;;;;;5012348;28;20194;-85
2022/08/01 07:02:07;;;;;;;11.30;9.13;;;24.00;65.10;;;;;;5015703;28;20805;-85
2022/08/01 07:04:33;;;;;;;8.02;7.43;;;24.10;65.20;;;;;;5013843;28;20190;-85
2022/08/01 07:06:59;;;;;;;8.23;7.50;;;24.40;64.30;;;;;;5008820;28;20252;-84
2022/08/01 07:09:25;;;;;;;7.00;6.30;;;24.60;62.70;;;;;;5013141;28;20687;-84
2022/08/01 07:11:52;;;;;;;7.28;6.63;;;24.80;63.00;;;;;;5016330;28;20259;-84
2022/08/01 07:14:18;;;;;;;6.43;5.82;;;24.60;63.50;;;;;;5015230;28;20182;-85
2022/08/01 07:16:44;;;;;;;5.53;5.13;;;24.70;64.40;;;;;;5016903;28;20259;-84
2022/08/01 07:19:10;;;;;;;5.78;5.32;;;24.80;62.40;;;;;;5013552;28;20209;-85
2022/08/01 07:21:36;;;;;;;6.18;5.20;;;24.70;63.50;;;;;;5009459;28;20743;-85
2022/08/01 07:24:01;;;;;;;4.82;4.43;;;24.70;64.20;;;;;;5014171;28;20185;-85
2022/08/01 07:26:27;;;;;;;4.70;4.40;;;24.90;62.20;;;;;;5012599;28;20197;-83
2022/08/01 07:28:53;;;;;;;5.05;4.65;;;25.00;62.60;;;;;;5013654;28;20206;-83
2022/08/01 07:31:19;;;;;;;4.95;4.55;;;25.20;60.60;;;;;;5010663;28;20685;-83
2022/08/01 07:33:45;;;;;;;4.72;4.20;;;25.00;62.10;;;;;;5009124;28;20202;-83
2022/08/01 07:36:11;;;;;;;4.10;3.80;;;25.00;62.30;;;;;;5013416;28;20197;-83
2022/08/01 07:38:37;;;;;;;4.53;3.83;;;25.10;61.00;;;;;;5012695;28;20256;-83
2022/08/01 07:41:02;;;;;;;4.47;4.18;;;25.10;60.00;;;;;;5004705;28;20221;-84
2022/08/01 07:43:29;;;;;;;4.60;4.20;;;25.10;61.10;;;;;;5010193;28;20201;-84
2022/08/01 07:45:54;;;;;;;4.47;4.10;;;24.80;63.20;;;;;;5014884;28;20189;-82
2022/08/01 07:48:23;;;;;;;7.60;4.20;;;24.70;62.90;;;;;;5013862;28;20299;-83
2022/08/01 07:50:50;;;;;;;4.43;4.10;;;24.70;63.30;;;;;;5011495;28;20584;-84
2022/08/01 07:53:16;;;;;;;4.30;3.90;;;24.70;63.20;;;;;;5011174;28;20296;-84
2022/08/01 07:55:42;;;;;;;4.18;3.88;;;24.80;62.50;;;;;;5010860;28;20185;-84
2022/08/01 07:58:08;;;;;;;4.32;3.67;;;25.10;62.00;;;;;;5015754;28;20292;-84
2022/08/01 08:00:33;;;;;;;3.80;3.50;;;25.30;60.00;;;;;;5010143;28;20178;-84
2022/08/01 08:02:59;;;;;;;4.30;3.90;;;25.50;59.40;;;;;;5009936;28;20550;-84
2022/08/01 08:05:27;;;;;;;3.28;3.08;;;25.30;60.60;;;;;;5012154;28;20193;-84
2022/08/01 08:07:52;;;;;;;3.50;3.30;;;25.20;59.80;;;;;;5009207;28;20281;-83
2022/08/01 08:10:18;;;;;;;4.65;3.42;;;25.20;59.90;;;;;;5019789;28;20252;-83
2022/08/01 08:12:46;;;;;;;3.25;3.05;;;25.50;58.80;;;;;;5011274;28;20282;-84
2022/08/01 08:15:12;;;;;;;3.63;3.25;;;25.70;57.30;;;;;;5020911;28;20441;-84
2022/08/01 08:17:39;;;;;;;3.88;3.60;;;25.70;58.30;;;;;;5017681;28;20205;-84
2022/08/01 08:20:06;;;;;;;4.90;3.63;;;25.70;58.10;;;;;;5000829;28;20219;-83
2022/08/01 08:22:32;;;;;;;4.90;3.45;;;25.80;57.50;;;;;;5025554;28;20249;-84
2022/08/01 08:24:58;;;;;;;3.92;3.30;;;25.90;58.00;;;;;;5014042;28;20225;-83
2022/08/01 08:27:24;;;;;;;7.28;3.60;;;26.10;57.60;;;;;;5012176;28;20215;-84
2022/08/01 08:29:49;;;;;;;4.00;3.50;;;26.10;58.00;;;;;;4993312;28;20659;-84
2022/08/01 08:32:15;;;;;;;3.85;3.00;;;26.40;56.70;;;;;;5009282;28;20225;-84
2022/08/01 08:34:42;;;;;;;3.47;3.17;;;26.50;55.70;;;;;;5012662;28;20883;-84
2022/08/01 08:37:07;;;;;;;3.65;3.20;;;26.60;54.70;;;;;;5014303;28;20190;-84
2022/08/01 08:39:33;;;;;;;3.50;3.20;;;27.10;54.30;;;;;;4995791;28;20185;-84
2022/08/01 08:42:07;;;;;;;3.60;3.30;;;27.20;53.70;;;;;;4998909;28;20203;-84
2022/08/01 08:44:33;;;;;;;7.78;3.67;;;27.00;54.20;;;;;;4998431;28;20178;-84
2022/08/01 08:47:04;;;;;;;4.30;3.25;;;27.20;53.50;;;;;;4996064;28;20263;-84
2022/08/01 08:49:31;;;;;;;4.85;3.53;;;27.60;51.60;;;;;;5012892;28;20201;-84
2022/08/01 08:51:59;;;;;;;3.75;3.10;;;27.80;51.70;;;;;;5011715;28;20229;-84
2022/08/01 08:54:26;;;;;;;6.50;3.20;;;28.00;52.10;;;;;;5012130;28;20213;-84
2022/08/01 08:56:54;;;;;;;3.80;3.60;;;28.00;51.40;;;;;;5015206;28;20206;-84
2022/08/01 08:59:20;;;;;;;3.60;3.40;;;28.10;50.80;;;;;;5013211;28;20202;-84
2022/08/01 09:01:47;;;;;;;3.90;3.50;;;28.30;50.80;;;;;;5013509;28;20224;-84
2022/08/01 09:04:13;;;;;;;3.63;3.33;;;28.20;50.70;;;;;;5003092;28;20185;-84
2022/08/01 09:06:39;;;;;;;4.68;3.60;;;27.90;50.10;;;;;;5000767;28;20296;-83
2022/08/01 09:09:07;;;;;;;5.00;3.72;;;28.00;51.70;;;;;;5020162;28;20226;-83
2022/08/01 09:11:33;;;;;;;4.05;3.70;;;27.90;50.70;;;;;;5008504;28;20205;-83
2022/08/01 09:14:02;;;;;;;3.33;3.13;;;28.10;51.20;;;;;;5014384;28;20191;-83
2022/08/01 09:16:29;;;;;;;3.53;3.22;;;28.00;51.10;;;;;;5015395;28;20192;-83
2022/08/01 09:19:10;;;;;;;3.78;3.47;;;28.10;51.10;;;;;;5001104;28;20268;-84
2022/08/01 09:21:37;;;;;;;4.43;4.03;;;28.20;49.70;;;;;;5014750;28;20209;-83
2022/08/01 09:24:05;;;;;;;3.75;3.55;;;28.30;49.00;;;;;;5016354;28;20182;-83
2022/08/01 09:26:35;;;;;;;4.00;3.70;;;28.10;51.40;;;;;;5019529;28;20322;-83
2022/08/01 09:29:07;;;;;;;4.00;3.67;;;28.00;51.40;;;;;;5009185;28;20221;-82
2022/08/01 09:31:41;;;;;;;3.97;3.60;;;28.20;50.40;;;;;;5003479;28;20693;-83
2022/08/01 09:34:09;;;;;;;4.10;3.70;;;28.40;49.00;;;;;;5006050;28;20704;-85
2022/08/01 09:36:55;;;;;;;5.20;4.00;;;28.80;49.50;;;;;;5007705;28;20192;-84
2022/08/01 09:39:27;;;;;;;3.63;3.33;;;28.90;47.90;;;;;;5011322;28;20300;-85
2022/08/01 09:41:54;;;;;;;3.78;3.47;;;28.90;47.50;;;;;;5004297;28;20201;-85
2022/08/01 09:44:43;;;;;;;3.55;3.33;;;29.00;47.60;;;;;;5004056;28;20221;-84
2022/08/01 09:47:10;;;;;;;3.63;3.35;;;28.80;46.80;;;;;;5004305;28;20177;-84
2022/08/01 09:49:39;;;;;;;5.18;3.38;;;29.10;47.60;;;;;;5006812;28;20725;-85
2022/08/01 09:52:16;;;;;;;3.80;3.40;;;29.50;46.60;;;;;;5010465;28;20325;-85
2022/08/01 09:54:44;;;;;;;3.78;3.47;;;29.40;46.70;;;;;;4988448;28;20204;-85
2022/08/01 09:57:17;;;;;;;3.90;3.45;;;29.10;47.10;;;;;;4991654;28;20181;-84
2022/08/01 09:59:46;;;;;;;3.67;3.47;;;29.00;47.40;;;;;;5003011;28;20201;-85
2022/08/01 10:02:15;;;;;;;3.53;3.33;;;28.80;47.20;;;;;;5005090;28;20185;-86
2022/08/01 10:04:51;;;;;;;3.70;3.50;;;28.80;47.60;;;;;;5003614;28;20244;-86
2022/08/01 10:07:18;;;;;;;3.83;3.40;;;29.00;47.70;;;;;;4990921;28;20189;-86
2022/08/01 10:09:45;;;;;;;4.00;3.70;;;28.80;46.20;;;;;;5014216;28;20351;-86
2022/08/01 10:12:14;;;;;;;4.30;4.00;;;28.90;47.10;;;;;;5013398;28;20209;-87
2022/08/01 10:14:41;;;;;;;5.63;3.70;;;29.00;47.30;;;;;;5003512;28;20186;-87
2022/08/01 10:17:15;;;;;;;3.72;3.53;;;29.50;45.90;;;;;;4998236;28;20272;-87
2022/08/01 10:19:43;;;;;;;3.92;3.63;;;29.70;45.40;;;;;;5000349;28;20678;-86
2022/08/01 10:22:10;;;;;;;3.70;3.50;;;29.80;45.10;;;;;;5006595;28;20813;-87
2022/08/01 10:24:40;;;;;;;3.60;3.40;;;30.10;44.10;;;;;;4988398;28;20251;-87
2022/08/01 10:27:10;;;;;;;3.97;3.70;;;30.20;44.10;;;;;;5014570;28;20192;-87
2022/08/01 10:30:03;;;;;;;4.05;3.72;;;30.30;43.90;;;;;;4998326;28;20181;-87
2022/08/01 10:32:30;;;;;;;4.20;3.90;;;30.50;43.10;;;;;;4991760;28;20182;-86
2022/08/01 10:34:56;;;;;;;4.25;3.90;;;30.30;43.00;;;;;;4991561;28;20190;-86
2022/08/01 10:37:23;;;;;;;4.40;4.00;;;30.40;43.70;;;;;;5009677;28;20209;-87
2022/08/01 10:39:51;;;;;;;4.53;4.22;;;30.30;43.30;;;;;;5009839;28;20217;-86
2022/08/01 10:42:18;;;;;;;4.07;3.78;;;30.10;44.00;;;;;;4988852;28;20292;-87
2022/08/01 10:44:47;;;;;;;4.38;4.05;;;30.20;44.10;;;;;;5015161;28;20190;-87
2022/08/01 10:47:15;;;;;;;4.53;4.07;;;30.10;44.80;;;;;;5002617;28;20218;-87
2022/08/01 10:50:06;;;;;;;3.90;3.70;;;30.00;44.40;;;;;;5010562;28;20220;-87
2022/08/01 10:52:32;;;;;;;4.93;4.53;;;29.90;44.00;;;;;;5019523;28;20284;-87
2022/08/01 10:55:10;;;;;;;4.45;4.13;;;30.00;44.70;;;;;;4999485;28;20217;-87
2022/08/01 10:57:47;;;;;;;4.70;4.38;;;30.10;43.80;;;;;;5015741;28;20212;-87
2022/08/01 11:00:21;;;;;;;4.53;4.13;;;30.40;42.30;;;;;;5009170;28;20173;-89
2022/08/01 11:03:00;;;;;;;5.10;4.43;;;30.80;41.60;;;;;;5016595;28;20262;-89
2022/08/01 11:05:30;;;;;;;4.63;4.30;;;31.20;41.80;;;;;;5007419;28;20401;-86
2022/08/01 11:07:57;;;;;;;4.30;3.97;;;31.70;40.20;;;;;;5003341;28;20224;-87
2022/08/01 11:10:34;;;;;;;4.55;4.15;;;31.50;39.90;;;;;;5004397;28;20245;-87
2022/08/01 11:13:03;;;;;;;3.97;3.78;;;31.60;39.40;;;;;;5003881;28;20181;-87
2022/08/01 11:15:29;;;;;;;4.03;3.83;;;31.30;40.10;;;;;;4995567;28;20665;-87
2022/08/01 11:17:56;;;;;;;4.45;4.05;;;31.50;40.00;;;;;;5009981;28;20220;-87
2022/08/01 11:20:31;;;;;;;4.63;4.20;;;31.60;38.10;;;;;;5005795;28;20260;-86
2022/08/01 11:23:06;;;;;;;4.40;4.10;;;31.60;38.50;;;;;;5009984;28;20588;-86
2022/08/01 11:25:37;;;;;;;3.97;3.78;;;31.30;41.20;;;;;;5006004;28;20193;-86
2022/08/01 11:28:19;;;;;;;3.97;3.70;;;31.60;40.40;;;;;;5011314;28;20220;-86
2022/08/01 11:30:47;;;;;;;4.20;4.00;;;31.80;40.70;;;;;;5012477;28;20696;-86
2022/08/01 11:33:14;;;;;;;4.60;4.20;;;32.00;38.70;;;;;;5011403;28;20182;-86
2022/08/01 11:36:12;;;;;;;4.20;3.97;;;31.80;40.20;;;;;;5010669;28;20182;-86
2022/08/01 11:38:38;;;;;;;3.92;3.72;;;31.60;40.70;;;;;;4994312;28;20222;-86
2022/08/01 11:41:20;;;;;;;4.07;3.78;;;31.40;40.50;;;;;;5011574;28;20190;-86
2022/08/01 11:44:08;;;;;;;4.20;4.00;;;31.10;41.50;;;;;;4993558;28;20593;-87
2022/08/01 11:46:56;;;;;;;4.32;4.03;;;31.40;41.00;;;;;;5005072;28;20236;-87
2022/08/01 11:49:44;;;;;;;4.35;3.95;;;32.10;40.00;;;;;;5003413;28;20197;-87
2022/08/01 11:52:17;;;;;;;5.13;4.07;;;32.40;38.50;;;;;;4999511;28;20206;-87
2022/08/01 11:54:55;;;;;;;4.47;4.18;;;32.90;37.80;;;;;;4991704;28;20186;-87
2022/08/01 11:57:23;;;;;;;5.30;3.90;;;33.30;37.10;;;;;;4991359;28;20694;-86
2022/08/01 11:59:54;;;;;;;4.57;4.28;;;33.50;36.90;;;;;;4994444;28;20186;-86
2022/08/01 12:02:36;;;;;;;4.50;4.20;;;33.70;34.90;;;;;;5011835;28;20185;-87
2022/08/01 12:05:07;;;;;;;4.20;3.90;;;33.80;33.30;;;;;;4987113;28;20908;-86
2022/08/01 12:07:35;;;;;;;4.22;4.03;;;33.70;34.10;;;;;;5019012;28;20208;-87
2022/08/01 12:10:02;;;;;;;4.47;4.15;;;33.70;33.90;;;;;;4989107;28;20190;-87
2022/08/01 12:12:30;;;;;;;4.35;3.92;;;33.70;33.50;;;;;;5011543;28;20297;-86
2022/08/01 12:15:01;;;;;;;4.35;4.00;;;33.40;33.40;;;;;;5027534;28;20241;-87
2022/08/01 12:17:29;;;;;;;4.47;4.18;;;33.70;33.50;;;;;;5000171;28;20677;-87
2022/08/01 12:19:55;;;;;;;4.97;4.15;;;34.20;33.30;;;;;;5005707;28;20273;-86
2022/08/01 12:22:23;;;;;;;4.40;4.20;;;34.50;33.40;;;;;;5005566;28;20214;-87
2022/08/01 12:24:49;;;;;;;4.47;4.18;;;34.70;33.20;;;;;;5004524;28;20205;-86
2022/08/01 12:27:29;;;;;;;4.45;4.15;;;34.80;31.40;;;;;;5004859;28;20676;-87
2022/08/01 12:29:57;;;;;;;4.22;4.00;;;34.10;32.30;;;;;;4986695;28;20696;-87
2022/08/01 12:32:27;;;;;;;6.28;5.78;;;34.30;32.70;;;;;;4991382;28;20301;-87
2022/08/01 12:34:54;;;;;;;4.22;4.00;;;34.40;33.30;;;;;;5004788;28;20698;-87
2022/08/01 12:37:20;;;;;;;4.95;4.65;;;34.30;32.90;;;;;;5008244;28;20202;-87
2022/08/01 12:39:47;;;;;;;4.78;4.47;;;34.60;31.50;;;;;;5011775;28;20192;-87
2022/08/01 12:42:14;;;;;;;4.50;4.30;;;35.10;31.30;;;;;;4985994;28;20226;-87
2022/08/01 12:44:42;;;;;;;4.32;4.03;;;35.40;30.40;;;;;;5004802;28;20194;-87
2022/08/01 12:47:08;;;;;;;4.13;3.90;;;35.20;30.50;;;;;;5013176;28;20205;-87
2022/08/01 12:49:38;;;;;;;4.07;3.88;;;34.60;30.40;;;;;;5009152;28;20601;-87
2022/08/01 12:52:04;;;;;;;4.40;4.10;;;34.80;29.70;;;;;;5008809;28;20225;-86
2022/08/01 12:54:30;;;;;;;4.57;4.28;;;35.20;29.60;;;;;;4998273;28;20268;-87